Wills Point, TX (75169)

1:25 PM CDT on August 03, 2015 (GMT -0500)
Duck Creek | | Change Station
CLOSE
Current Station
Personal Weather Station
Location: Terrell, TX
Elevation: 540 ft
Nearby Weather Stations

Elev 540 ft 32.80 °N, 96.11 °W | Updated 12 seconds ago

Clear
Clear
96.6 °F
Feels Like 98 °F
N
7.2
Wind Variable Wind from South
Gusts 7.4 mph

Today
High -- | Low -- °F
--% Chance of Precip.
Yesterday
High -- | Low -- °F
Precip. -- in
6:39 AM 8:20 PM
Waning Gibbous, 85% visible
Pressure 29.91 in
Visibility 10.0 miles
Clouds Few 7000 ft
Heat Index 98 °F
Dew Point 63 °F
Humidity 33%
Rainfall 0.00 in
Snow Depth Not available.
UV 8.0 out of 12
Pollen 4.10 out of 12
Air Quality Not available.
Flu Activity Not available.
METAR KTRL 031753Z AUTO 33004KT 10SM FEW070 34/17 A2993 RMK AO2 SLP128 T03440167 10350 20228 58004

More Conditions Fewer Conditions

Pressure 29.91 in
Visibility 10.0 miles
Clouds Few 7000 ft
Heat Index 98 °F
Dew Point 63 °F
Humidity 33%
Rainfall 0.00 in
Snow Depth Not available.
UV 8.0 out of 12
Pollen 4.10 out of 12
Air Quality Not available.
Flu Activity Not available.
METAR KTRL 031753Z AUTO 33004KT 10SM FEW070 34/17 A2993 RMK AO2 SLP128 T03440167 10350 20228 58004

More Conditions Fewer Conditions

10-Day Weather Forecast

×

Almanac

Astronomy

Aug. 03, 2015 Rise Set
Actual Time
Civil Twilight
Nautical Twilight
Astronomical Twilight
Moon
Length of Visible Light
Length of Day
Tomorrow will be .
, % of the Moon is Illuminated

Today's Extremes

State Highs State Lows

Community

WunderPhotos

Upload Photos

1,843,697 photos uploaded!

WunderBlogs® & News

Nearby

Air Quality

  Air Quality AQ Index Pollutant
Not available.

Snow Depth

Station Depth Elevation

Earthquake Activity

City Distance Mag. Time & Date
Minimum magnitude displayed is 2.5.

Coastal Water Temperatures

Place Temperature

Stations

Nearby Weather Stations

Station Location Temp. Windchill Dew Point Humidity Wind Precip. Elev Updated Type